Time,TemperatureF,DewpointF,PressureIn,WindDirection,WindDirectionDegrees,WindSpeedMPH,WindSpeedGustMPH,Humidity,HourlyPrecipIn,Conditions,Clouds,dailyrainin,SoftwareType,DateUTC
2013-09-04 00:00:00,82.9,53.9,29.89,SW,223,0.0,0.0,37,0.00,,,0.00,WeatherTracker,2013-09-04 07:00:00,
2013-09-04 00:15:00,83.4,54.4,29.90,SW,214,0.0,0.0,37,0.00,,,0.00,WeatherTracker,2013-09-04 07:15:00,
2013-09-04 00:30:00,82.5,54.3,29.90,SW,232,0.0,0.0,38,0.00,,,0.00,WeatherTracker,2013-09-04 07:30:00,
2013-09-04 00:45:00,83.7,53.9,29.90,SW,233,5.0,0.0,36,0.00,,,0.00,WeatherTracker,2013-09-04 07:45:00,
2013-09-04 01:00:00,83.2,54.2,29.89,WSW,255,0.0,0.0,37,0.00,,,0.00,WeatherTracker,2013-09-04 08:00:00,
2013-09-04 01:15:00,82.0,54.6,29.90,West,273,0.0,0.0,39,0.00,,,0.00,WeatherTracker,2013-09-04 08:15:00,
2013-09-04 01:30:00,81.1,54.5,29.90,West,260,0.0,0.0,40,0.00,,,0.00,WeatherTracker,2013-09-04 08:30:00,
2013-09-04 01:45:00,80.6,54.0,29.90,WSW,254,0.0,0.0,40,0.00,,,0.00,WeatherTracker,2013-09-04 08:45:00,
2013-09-04 02:00:00,80.2,54.3,29.91,WSW,257,0.0,0.0,41,0.00,,,0.00,WeatherTracker,2013-09-04 09:00:00,
2013-09-04 02:15:00,79.8,54.0,29.91,NNE,15,0.0,0.0,41,0.00,,,0.00,WeatherTracker,2013-09-04 09:15:00,
2013-09-04 02:30:00,79.2,53.4,29.91,NNE,13,0.0,0.0,41,0.00,,,0.00,WeatherTracker,2013-09-04 09:30:00,
2013-09-04 02:45:00,78.7,53.7,29.91,SW,234,0.0,0.0,42,0.00,,,0.00,WeatherTracker,2013-09-04 09:45:00,
2013-09-04 03:00:00,78.3,53.3,29.91,WSW,237,0.0,0.0,42,0.00,,,0.00,WeatherTracker,2013-09-04 10:00:00,
2013-09-04 03:15:00,78.3,53.3,29.88,SW,227,1.0,0.0,42,0.00,,,0.00,WeatherTracker,2013-09-04 10:15:00,
2013-09-04 03:30:00,78.7,53.7,29.91,West,261,0.0,0.0,42,0.00,,,0.00,WeatherTracker,2013-09-04 10:30:00,
2013-09-04 03:45:00,78.4,53.4,29.91,SSW,199,0.0,0.0,42,0.00,,,0.00,WeatherTracker,2013-09-04 10:45:00,
2013-09-04 04:00:00,78.1,52.5,29.92,SW,229,0.0,0.0,41,0.00,,,0.00,WeatherTracker,2013-09-04 11:00:00,
2013-09-04 04:15:00,77.5,52.6,29.91,SW,229,0.0,0.0,42,0.00,,,0.00,WeatherTracker,2013-09-04 11:15:00,
2013-09-04 04:30:00,76.9,52.0,29.92,SW,235,0.0,0.0,42,0.00,,,0.00,WeatherTracker,2013-09-04 11:30:00,
2013-09-04 04:45:00,76.4,52.9,29.92,SW,227,0.0,0.0,44,0.00,,,0.00,WeatherTracker,2013-09-04 11:45:00,
2013-09-04 05:00:00,76.4,54.1,29.93,SW,227,0.0,0.0,46,0.00,,,0.00,WeatherTracker,2013-09-04 12:00:00,
2013-09-04 05:15:00,75.4,53.7,29.93,SW,227,0.0,0.0,47,0.00,,,0.00,WeatherTracker,2013-09-04 12:15:00,
2013-09-04 05:30:00,75.3,54.2,29.93,SW,227,0.0,0.0,48,0.00,,,0.00,WeatherTracker,2013-09-04 12:30:00,
2013-09-04 05:45:00,74.9,52.7,29.94,SW,227,0.0,0.0,46,0.00,,,0.00,WeatherTracker,2013-09-04 12:45:00,
2013-09-04 06:00:00,74.4,52.3,29.95,SW,227,0.0,0.0,46,0.00,,,0.00,WeatherTracker,2013-09-04 13:00:00,
2013-09-04 06:15:00,73.9,52.4,29.96,WSW,252,0.0,0.0,47,0.00,,,0.00,WeatherTracker,2013-09-04 13:15:00,
2013-09-04 06:30:00,73.5,52.6,29.96,WSW,252,0.0,0.0,48,0.00,,,0.00,WeatherTracker,2013-09-04 13:30:00,
2013-09-04 06:45:00,73.4,53.1,29.97,WSW,252,0.0,0.0,49,0.00,,,0.00,WeatherTracker,2013-09-04 13:45:00,
2013-09-04 07:00:00,74.1,54.8,29.97,WSW,252,0.0,0.0,51,0.00,,,0.00,WeatherTracker,2013-09-04 14:00:00,
2013-09-04 07:15:00,75.1,52.9,29.98,WSW,244,0.0,0.0,46,0.00,,,0.00,WeatherTracker,2013-09-04 14:15:00,
2013-09-04 07:30:00,77.6,52.7,29.97,SW,232,0.0,0.0,42,0.00,,,0.00,WeatherTracker,2013-09-04 14:30:00,
2013-09-04 07:45:00,79.1,53.4,29.98,SW,229,0.0,0.0,41,0.00,,,0.00,WeatherTracker,2013-09-04 14:45:00,
2013-09-04 08:00:00,80.4,53.8,29.98,SE,125,0.0,0.0,40,0.00,,,0.00,WeatherTracker,2013-09-04 15:00:00,
2013-09-04 08:15:00,81.3,53.9,29.99,SE,128,0.0,0.0,39,0.00,,,0.00,WeatherTracker,2013-09-04 15:15:00,
2013-09-04 08:30:00,84.6,53.9,29.98,SE,128,0.0,0.0,35,0.00,,,0.00,WeatherTracker,2013-09-04 15:30:00,
2013-09-04 08:45:00,85.4,54.6,29.99,SE,126,0.0,0.0,35,0.00,,,0.00,WeatherTracker,2013-09-04 15:45:00,
2013-09-04 09:00:00,85.9,53.4,30.01,SE,126,0.0,0.0,33,0.00,,,0.00,WeatherTracker,2013-09-04 16:00:00,
2013-09-04 09:15:00,87.9,54.3,30.02,SE,126,0.0,0.0,32,0.00,,,0.00,WeatherTracker,2013-09-04 16:15:00,
2013-09-04 09:30:00,88.9,53.4,30.02,SE,126,0.0,0.0,30,0.00,,,0.00,WeatherTracker,2013-09-04 16:30:00,
2013-09-04 09:45:00,89.5,53.0,30.02,ESE,113,0.0,0.0,29,0.00,,,0.00,WeatherTracker,2013-09-04 16:45:00,
2013-09-04 10:00:00,90.3,52.7,30.03,ESE,107,0.0,0.0,28,0.00,,,0.00,WeatherTracker,2013-09-04 17:00:00,
2013-09-04 10:15:00,90.9,53.2,30.04,East,82,0.0,0.0,28,0.00,,,0.00,WeatherTracker,2013-09-04 17:15:00,
2013-09-04 10:30:00,91.7,52.9,30.02,East,101,0.0,0.0,27,0.00,,,0.00,WeatherTracker,2013-09-04 17:30:00,
2013-09-04 10:45:00,93.0,53.0,30.02,ESE,111,0.0,0.0,26,0.00,,,0.00,WeatherTracker,2013-09-04 17:45:00,
2013-09-04 11:00:00,95.0,52.5,30.02,SE,145,0.0,0.0,24,0.00,,,0.00,WeatherTracker,2013-09-04 18:00:00,
2013-09-04 11:15:00,95.0,52.5,30.01,SSW,209,2.0,0.0,24,0.00,,,0.00,WeatherTracker,2013-09-04 18:15:00,
2013-09-04 11:30:00,95.8,50.8,30.01,SSW,205,6.0,0.0,22,0.00,,,0.00,WeatherTracker,2013-09-04 18:30:00,
2013-09-04 11:45:00,96.1,51.0,30.00,SW,236,0.0,0.0,22,0.00,,,0.00,WeatherTracker,2013-09-04 18:45:00,
2013-09-04 12:00:00,95.7,49.5,30.01,SE,145,4.0,0.0,21,0.00,,,0.00,WeatherTracker,2013-09-04 19:00:00,
2013-09-04 12:15:00,96.8,50.4,29.99,South,189,0.0,0.0,21,0.00,,,0.00,WeatherTracker,2013-09-04 19:15:00,
2013-09-04 12:30:00,96.5,50.1,29.98,SW,230,1.0,0.0,21,0.00,,,0.00,WeatherTracker,2013-09-04 19:30:00,
2013-09-04 12:45:00,98.3,48.9,29.98,SSE,164,0.0,0.0,19,0.00,,,0.00,WeatherTracker,2013-09-04 19:45:00,
2013-09-04 13:00:00,98.2,47.4,29.98,South,180,5.0,0.0,18,0.00,,,0.00,WeatherTracker,2013-09-04 20:00:00,
2013-09-04 13:15:00,97.9,47.1,29.98,SW,215,0.0,0.0,18,0.00,,,0.00,WeatherTracker,2013-09-04 20:15:00,
2013-09-04 13:30:00,98.3,44.3,29.98,SSE,150,2.0,0.0,16,0.00,,,0.00,WeatherTracker,2013-09-04 20:30:00,
2013-09-04 13:45:00,98.3,44.3,29.91,South,173,3.0,0.0,16,0.00,,,0.00,WeatherTracker,2013-09-04 20:45:00,
2013-09-04 14:00:00,98.9,44.8,29.96,South,188,3.0,0.0,16,0.00,,,0.00,WeatherTracker,2013-09-04 21:00:00,
2013-09-04 14:15:00,99.2,41.6,29.96,SSW,209,0.0,0.0,14,0.00,,,0.00,WeatherTracker,2013-09-04 21:15:00,
2013-09-04 14:30:00,99.5,43.6,29.95,South,191,2.0,0.0,15,0.00,,,0.00,WeatherTracker,2013-09-04 21:30:00,
2013-09-04 14:45:00,99.1,43.3,29.94,SSE,161,0.0,0.0,15,0.00,,,0.00,WeatherTracker,2013-09-04 21:45:00,
2013-09-04 15:00:00,99.7,43.8,29.93,SSE,158,0.0,0.0,15,0.00,,,0.00,WeatherTracker,2013-09-04 22:00:00,
2013-09-04 15:15:00,100.3,44.2,29.93,SSW,202,0.0,0.0,15,0.00,,,0.00,WeatherTracker,2013-09-04 22:15:00,
2013-09-04 15:30:00,100.3,44.2,29.92,South,180,0.0,0.0,15,0.00,,,0.00,WeatherTracker,2013-09-04 22:30:00,
2013-09-04 15:45:00,100.4,44.3,29.91,South,187,0.0,0.0,15,0.00,,,0.00,WeatherTracker,2013-09-04 22:45:00,
2013-09-04 16:00:00,99.9,43.9,29.91,SSW,213,1.0,0.0,15,0.00,,,0.00,WeatherTracker,2013-09-04 23:00:00,
2013-09-04 16:15:00,99.4,45.2,29.91,SSW,194,0.0,0.0,16,0.00,,,0.00,WeatherTracker,2013-09-04 23:15:00,
2013-09-04 16:30:00,100.2,44.2,29.90,SW,217,1.0,0.0,15,0.00,,,0.00,WeatherTracker,2013-09-04 23:30:00,
2013-09-04 16:45:00,100.0,45.7,29.90,South,175,4.0,0.0,16,0.00,,,0.00,WeatherTracker,2013-09-04 23:45:00,
2013-09-04 17:00:00,98.5,46.1,29.91,SSE,151,0.0,0.0,17,0.00,,,0.00,WeatherTracker,2013-09-05 00:00:00,
2013-09-04 17:15:00,99.0,44.9,29.91,SW,219,3.0,0.0,16,0.00,,,0.00,WeatherTracker,2013-09-05 00:15:00,
2013-09-04 17:30:00,99.1,48.1,29.91,SSW,198,1.0,0.0,18,0.00,,,0.00,WeatherTracker,2013-09-05 00:30:00,
2013-09-04 17:45:00,97.8,54.8,29.91,SW,222,7.0,0.0,24,0.00,,,0.00,WeatherTracker,2013-09-05 00:45:00,
2013-09-04 18:00:00,95.4,55.0,29.92,SSE,163,1.0,0.0,26,0.00,,,0.00,WeatherTracker,2013-09-05 01:00:00,
2013-09-04 18:15:00,95.8,54.3,29.91,South,179,7.0,0.0,25,0.00,,,0.00,WeatherTracker,2013-09-05 01:15:00,
2013-09-04 18:30:00,94.9,53.5,29.91,SSE,153,0.0,0.0,25,0.00,,,0.00,WeatherTracker,2013-09-05 01:30:00,
2013-09-04 18:45:00,95.1,49.0,29.92,South,188,0.0,0.0,21,0.00,,,0.00,WeatherTracker,2013-09-05 01:45:00,
2013-09-04 19:00:00,94.5,45.8,29.92,SSE,167,1.0,0.0,19,0.00,,,0.00,WeatherTracker,2013-09-05 02:00:00,
2013-09-04 19:15:00,93.3,46.2,29.91,South,180,0.0,0.0,20,0.00,,,0.00,WeatherTracker,2013-09-05 02:15:00,
2013-09-04 19:30:00,92.9,48.4,29.91,South,180,1.0,0.0,22,0.00,,,0.00,WeatherTracker,2013-09-05 02:30:00,
2013-09-04 19:45:00,93.3,49.9,29.91,SW,219,0.0,0.0,23,0.00,,,0.00,WeatherTracker,2013-09-05 02:45:00,
2013-09-04 20:00:00,92.8,48.3,29.92,SW,223,5.0,0.0,22,0.00,,,0.00,WeatherTracker,2013-09-05 03:00:00,
2013-09-04 20:15:00,92.0,50.0,29.92,South,187,2.0,0.0,24,0.00,,,0.00,WeatherTracker,2013-09-05 03:15:00,
2013-09-04 20:30:00,91.0,51.3,29.92,SW,219,0.0,0.0,26,0.00,,,0.00,WeatherTracker,2013-09-05 03:30:00,
2013-09-04 20:45:00,90.3,51.7,29.91,West,277,0.0,0.0,27,0.00,,,0.00,WeatherTracker,2013-09-05 03:45:00,
2013-09-04 21:00:00,89.0,51.6,29.91,West,275,0.0,0.0,28,0.00,,,0.00,WeatherTracker,2013-09-05 04:00:00,
2013-09-04 21:15:00,89.2,52.7,29.90,SW,218,0.0,0.0,29,0.00,,,0.00,WeatherTracker,2013-09-05 04:15:00,
2013-09-04 21:30:00,88.8,53.3,29.89,SW,217,0.0,0.0,30,0.00,,,0.00,WeatherTracker,2013-09-05 04:30:00,
2013-09-04 21:45:00,88.3,52.9,29.90,West,279,0.0,0.0,30,0.00,,,0.00,WeatherTracker,2013-09-05 04:45:00,
2013-09-04 22:00:00,88.1,53.6,29.90,SW,218,7.0,0.0,31,0.00,,,0.00,WeatherTracker,2013-09-05 05:00:00,
2013-09-04 22:15:00,88.6,53.2,29.88,West,281,1.0,0.0,30,0.00,,,0.00,WeatherTracker,2013-09-05 05:15:00,
2013-09-04 22:30:00,87.9,51.6,29.89,WNW,295,0.0,0.0,29,0.00,,,0.00,WeatherTracker,2013-09-05 05:30:00,
2013-09-04 22:45:00,87.1,53.6,29.89,SSW,202,0.0,0.0,32,0.00,,,0.00,WeatherTracker,2013-09-05 05:45:00,
2013-09-04 23:00:00,86.4,53.9,29.90,South,191,0.0,0.0,33,0.00,,,0.00,WeatherTracker,2013-09-05 06:00:00,
2013-09-04 23:15:00,86.4,52.2,29.89,WNW,294,0.0,0.0,31,0.00,,,0.00,WeatherTracker,2013-09-05 06:15:00,
2013-09-04 23:30:00,87.1,52.8,29.89,South,191,0.0,0.0,31,0.00,,,0.00,WeatherTracker,2013-09-05 06:30:00,
2013-09-04 23:45:00,86.8,52.5,29.90,SE,142,0.0,0.0,31,0.00,,,0.00,WeatherTracker,2013-09-05 06:45:00,